Terminal Aerodrome Forecast
Issued by NWS

Home | Current Version | Previous Version | Text Only | Print | Product List | Glossary On
Versions: 1 2 3 4 5 6 7 8 9 10 11 12 13 14 15 16
000
FTUS46 KSEW 022300
TAFOLM
TAF
KOLM 022336Z 0300/0324 05010KT P6SM SCT050 SCT250
     FM030200 05006KT P6SM SCT250
     FM031200 VRB03KT 4SM MIFG BKN250
     FM031800 02006KT P6SM BKN250=

USA.gov is the U.S. government's official web portal to all federal, state and local government web resources and services.